KDAY

James M Cox Dayton International Airport

Dayton, Ohio, USA
KDAY 221741Z 2218/2318 03012KT P6SM VCSH OVC025 FM221900 03012KT P6SM VCTS OVC040CB FM230000 02010KT P6SM VCSH BKN040 FM230300 02008KT P6SM BKN025 FM230700 01007KT P6SM BKN008 FM231400 36008KT P6SM BKN015
Issued Valid From Valid To
Jul-22 @ 17:41 UTC
(2 hours ago)
Jul-22 @ 18:00 UTC
(2 hours ago)
Jul-23 @ 18:00 UTC
(in 22 hours)
Expired Click to View Jul-22 @ 18:00 to Jul-22 @ 19:00
KDAY 221741Z 2218/2318 03012KT P6SM VCSH OVC025
Wind Visibility Clouds
30° at 12 knots Greater than 6 miles
  • Overcast at 2,500' AGL
From Jul-22 @ 19:00 to Jul-23 @ 00:00
FM221900 03012KT P6SM VCTS OVC040CB
Wind Visibility Clouds Conditions
30° at 12 knots Greater than 6 miles
  • Overcast at 4,000' AGL
  • Area Thunderstorm
From Jul-23 @ 00:00 to Jul-23 @ 03:00
FM230000 02010KT P6SM VCSH BKN040
Wind Visibility Clouds
20° at 10 knots Greater than 6 miles
  • Broken at 4,000' AGL
From Jul-23 @ 03:00 to Jul-23 @ 07:00
FM230300 02008KT P6SM BKN025
Wind Visibility Clouds
20° at 8 knots Greater than 6 miles
  • Broken at 2,500' AGL
From Jul-23 @ 07:00 to Jul-23 @ 14:00
FM230700 01007KT P6SM BKN008
Wind Visibility Clouds
10° at 7 knots Greater than 6 miles
  • Broken at 800' AGL
From Jul-23 @ 14:00 to Jul-23 @ 18:00
FM231400 36008KT P6SM BKN015
Wind Visibility Clouds
360° at 8 knots Greater than 6 miles
  • Broken at 1,500' AGL
KDAY 221741Z 2218/2318 03012KT P6SM VCSH OVC025 FM221900 03012KT P6SM VCTS OVC040CB FM230000 02010KT P6SM VCSH BKN040 FM230300 02008KT P6SM BKN025 FM230700 01007KT P6SM BKN008 FM231400 36008KT P6SM BKN015
Issued Jul-22 @ 17:41 UTC
(2 hours ago)
Valid From Jul-22 @ 18:00 UTC
(2 hours ago)
Valid To Jul-23 @ 18:00 UTC
(in 22 hours)
Jul-22 @ 18:00 - Jul-22 @ 19:00
Wind Visibility
30° at 12 knots Greater than 6 miles
Clouds
  • Overcast at 2,500' AGL
From Jul-22 @ 19:00 - Jul-23 @ 00:00
Wind Visibility
30° at 12 knots Greater than 6 miles
Clouds
  • Overcast at 4,000' AGL
Conditions
  • Area Thunderstorm
From Jul-23 @ 00:00 - Jul-23 @ 03:00
Wind Visibility
20° at 10 knots Greater than 6 miles
Clouds
  • Broken at 4,000' AGL
From Jul-23 @ 03:00 - Jul-23 @ 07:00
Wind Visibility
20° at 8 knots Greater than 6 miles
Clouds
  • Broken at 2,500' AGL
From Jul-23 @ 07:00 - Jul-23 @ 14:00
Wind Visibility
10° at 7 knots Greater than 6 miles
Clouds
  • Broken at 800' AGL
From Jul-23 @ 14:00 - Jul-23 @ 18:00
Wind Visibility
360° at 8 knots Greater than 6 miles
Clouds
  • Broken at 1,500' AGL